Time;durP1;ratioP1;P1;durP2;ratioP2;P2;SDS_P1;SDS_P2;PMS_P1;PMS_P2;Temp;Humidity;BMP_temperature;BMP_pressure;BME280_temperature;BME280_humidity;BME280_pressure;Samples;Min_cycle;Max_cycle;Signal;HPM_P1;HPM_P2
2023/03/29 00:00:59;;;;;;;;;9.00;8.75;;;;;-146.39;100.00;62182.44;6299144;20;1822390;-57
2023/03/29 00:03:29;;;;;;;;;11.00;11.00;;;;;-146.39;100.00;62182.44;6312064;20;2788909;-57
2023/03/29 00:06:04;;;;;;;;;11.00;8.67;;;;;-146.39;100.00;62182.44;6280616;20;3482621;-58
2023/03/29 00:08:33;;;;;;;;;8.00;6.00;;;;;-146.39;100.00;62182.44;6311195;20;3455517;-58
2023/03/29 00:11:01;;;;;;;;;6.00;5.33;;;;;-146.39;100.00;62182.44;6311856;20;3470095;-57
2023/03/29 00:13:29;;;;;;;;;6.00;5.00;;;;;-146.39;100.00;62182.44;6281297;20;3467975;-57
2023/03/29 00:15:58;;;;;;;;;4.75;4.75;;;;;-146.39;100.00;62182.44;6297966;20;1816016;-58
2023/03/29 00:18:26;;;;;;;;;9.33;5.67;;;;;-146.39;100.00;62182.44;6311813;20;3465876;-58
2023/03/29 00:20:56;;;;;;;;;4.00;4.00;;;;;-146.39;100.00;62182.44;6310475;20;3447278;-57
2023/03/29 00:23:25;;;;;;;;;6.00;6.00;;;;;-146.39;100.00;62182.44;6310069;20;3460777;-58
2023/03/29 00:25:54;;;;;;;;;8.00;8.00;;;;;-146.39;100.00;62182.44;6312169;20;3451409;-57
2023/03/29 00:28:23;;;;;;;;;9.50;9.00;;;;;-146.39;100.00;62182.44;6309665;20;2758725;-58
2023/03/29 00:30:51;;;;;;;;;11.00;10.00;;;;;-146.39;100.00;62182.44;6326599;20;1827445;-57
2023/03/29 00:33:20;;;;;;;;;7.33;7.33;;;;;-146.39;100.00;62182.44;6313989;20;3447304;-57
2023/03/29 00:35:48;;;;;;;;;6.00;6.00;;;;;-146.39;100.00;62182.44;6308871;20;3458578;-56
2023/03/29 00:38:17;;;;;;;;;9.00;7.00;;;;;-146.39;100.00;62182.44;6332987;20;1816076;-58
2023/03/29 00:40:46;;;;;;;;;11.33;8.00;;;;;-146.39;100.00;62182.44;6305332;20;3478497;-54
2023/03/29 00:43:15;;;;;;;;;9.00;9.00;;;;;-146.39;100.00;62182.44;6331172;20;1827478;-59
2023/03/29 00:45:43;;;;;;;;;8.00;8.00;;;;;-146.39;100.00;62182.44;6313961;20;2736804;-58
2023/03/29 00:48:19;;;;;;;;;8.00;8.00;;;;;-146.39;100.00;62182.44;6330981;20;1813879;-57
2023/03/29 00:51:00;;;;;;;;;9.00;6.00;;;;;-146.39;100.00;62182.44;6327234;20;1818185;-58
2023/03/29 00:53:42;;;;;;;;;7.33;7.33;;;;;-146.39;100.00;62182.44;6311036;20;3449239;-57
2023/03/29 00:56:31;;;;;;;;;7.33;7.33;;;;;-146.39;100.00;62182.44;6307055;20;3465885;-57
2023/03/29 00:59:12;;;;;;;;;7.50;5.75;;;;;-146.39;100.00;62182.44;6328350;20;1820550;-58
2023/03/29 01:02:01;;;;;;;;;6.00;6.00;;;;;-146.39;100.00;62182.44;6325271;20;1821108;-57
2023/03/29 01:04:40;;;;;;;;;10.00;6.00;;;;;-146.39;100.00;62182.44;6307062;20;3481671;-58
2023/03/29 01:07:27;;;;;;;;;6.50;6.50;;;;;-146.39;100.00;62182.44;6328868;20;1825416;-58
2023/03/29 01:10:08;;;;;;;;;8.00;8.00;;;;;-146.39;100.00;62182.44;6309062;20;3442989;-58
2023/03/29 01:12:44;;;;;;;;;6.00;6.00;;;;;-146.39;100.00;62182.44;6309684;20;3461786;-58
2023/03/29 01:15:20;;;;;;;;;8.00;6.00;;;;;-146.39;100.00;62182.44;6327215;20;1823296;-57
2023/03/29 01:17:52;;;;;;;;;8.00;5.50;;;;;-146.39;100.00;62182.44;6328121;20;1818522;-55
2023/03/29 01:21:29;;;;;;;;;7.25;7.00;;;;;-146.39;100.00;62182.44;6330719;20;1827416;-57
2023/03/29 01:24:44;;;;;;;;;6.67;5.00;;;;;-146.39;100.00;62182.44;6311709;20;3450266;-57
2023/03/29 01:27:54;;;;;;;;;8.25;6.50;;;;;-146.39;100.00;62182.44;6332008;20;1819628;-57
2023/03/29 01:30:45;;;;;;;;;7.33;7.33;;;;;-146.39;100.00;62182.44;6310760;20;3458686;-56
2023/03/29 01:33:41;;;;;;;;;8.25;6.00;;;;;-146.39;100.00;62182.44;6326548;20;1833682;-57
2023/03/29 01:36:26;;;;;;;;;9.00;8.00;;;;;-146.39;100.00;62182.44;6306014;20;3456544;-58
2023/03/29 01:39:02;;;;;;;;;9.00;5.67;;;;;-146.39;100.00;62182.44;6314077;20;3448625;-56
2023/03/29 01:42:28;;;;;;;;;8.67;8.67;;;;;-146.39;100.00;62182.44;6311222;20;3449316;-55
2023/03/29 01:45:30;;;;;;;;;9.00;7.33;;;;;-146.39;100.00;62182.44;6317642;20;3462761;-57
2023/03/29 01:48:19;;;;;;;;;10.00;8.00;;;;;-146.39;100.00;62182.44;6332002;20;1821373;-56
2023/03/29 01:51:12;;;;;;;;;9.00;9.00;;;;;-146.39;100.00;62182.44;6310729;20;3446094;-57
2023/03/29 01:53:51;;;;;;;;;11.25;9.00;;;;;-146.39;100.00;62182.44;6331179;20;1824321;-57
2023/03/29 01:56:25;;;;;;;;;11.67;10.00;;;;;-146.39;100.00;62182.44;6312795;20;3495047;-58
2023/03/29 01:59:02;;;;;;;;;12.75;9.00;;;;;-146.39;100.00;62182.44;6330305;20;1823290;-57
2023/03/29 02:01:48;;;;;;;;;12.00;9.00;;;;;-146.39;100.00;62182.44;6329848;20;1818133;-56
2023/03/29 02:04:33;;;;;;;;;6.50;6.50;;;;;-146.39;100.00;62182.44;6330854;20;1819161;-58
2023/03/29 02:07:06;;;;;;;;;7.00;7.00;;;;;-146.39;100.00;62182.44;6329721;20;1821602;-60
2023/03/29 02:09:38;;;;;;;;;5.00;1.00;;;;;-146.39;100.00;62182.44;6346819;20;2727410;-56
2023/03/29 02:12:08;;;;;;;;;11.33;9.00;;;;;-146.39;100.00;62182.44;6280789;20;3481525;-59
2023/03/29 02:14:36;;;;;;;;;5.67;4.00;;;;;-146.39;100.00;62182.44;6310651;20;2733716;-58
2023/03/29 02:17:25;;;;;;;;;13.00;8.50;;;;;-146.39;100.00;62182.44;6312979;20;2756574;-57
2023/03/29 02:20:13;;;;;;;;;16.00;9.67;;;;;-146.39;100.00;62182.44;6311176;20;3508635;-58
2023/03/29 02:23:20;;;;;;;;;14.75;10.00;;;;;-146.39;100.00;62182.44;6300237;20;1823258;-57
2023/03/29 02:25:52;;;;;;;;;9.00;9.00;;;;;-146.39;100.00;62182.44;6313210;20;2741076;-57
2023/03/29 02:28:24;;;;;;;;;8.17;8.17;;;;;-146.39;100.00;62182.44;6352990;20;1808692;-58
2023/03/29 02:31:06;;;;;;;;;11.00;8.00;;;;;-146.39;100.00;62182.44;6279503;20;3481535;-58
2023/03/29 02:34:01;;;;;;;;;21.00;14.00;;;;;-146.39;100.00;62182.44;6313764;20;2797182;-58
2023/03/29 02:36:46;;;;;;;;;16.50;12.50;;;;;-146.39;100.00;62182.44;6281271;20;2805506;-58
2023/03/29 02:39:16;;;;;;;;;17.33;13.67;;;;;-146.39;100.00;62182.44;6280422;20;2827486;-58
2023/03/29 02:41:51;;;;;;;;;18.00;15.14;;;;;-146.39;100.00;62182.44;6346437;20;1825376;-55
2023/03/29 02:44:26;;;;;;;;;18.80;15.00;;;;;-146.39;100.00;62182.44;6335646;20;2811729;-58
2023/03/29 02:47:18;;;;;;;;;16.00;12.50;;;;;-146.39;100.00;62182.44;6281940;20;2805558;-57
2023/03/29 02:49:46;;;;;;;;;16.00;12.00;;;;;-146.39;100.00;62182.44;6283447;20;2792983;-57
2023/03/29 02:52:21;;;;;;;;;15.50;12.00;;;;;-146.39;100.00;62182.44;6281727;20;2799290;-58
2023/03/29 02:54:53;;;;;;;;;20.67;17.33;;;;;-146.39;100.00;62182.44;6279285;20;2823280;-56
2023/03/29 02:57:25;;;;;;;;;21.33;19.00;;;;;-146.39;100.00;62182.44;6312316;20;3556675;-57
2023/03/29 02:59:56;;;;;;;;;29.50;22.00;;;;;-146.39;100.00;62182.44;6315652;20;2843248;-57
2023/03/29 03:02:26;;;;;;;;;24.00;19.67;;;;;-146.39;100.00;62182.44;6282378;20;3561768;-58
2023/03/29 03:04:56;;;;;;;;;26.00;21.33;;;;;-146.39;100.00;62182.44;6310503;20;3567024;-57
2023/03/29 03:07:24;;;;;;;;;22.50;18.00;;;;;-146.39;100.00;62182.44;6313674;20;2809836;-57
2023/03/29 03:09:54;;;;;;;;;23.80;17.20;;;;;-146.39;100.00;62182.44;6306681;20;2824668;-58
2023/03/29 03:12:23;;;;;;;;;17.33;17.33;;;;;-146.39;100.00;62182.44;6284243;20;3561457;-57
2023/03/29 03:14:51;;;;;;;;;18.33;17.33;;;;;-146.39;100.00;62182.44;6313967;20;3551304;-57
2023/03/29 03:17:21;;;;;;;;;24.67;22.00;;;;;-146.39;100.00;62182.44;6312763;20;3556520;-56
2023/03/29 03:19:51;;;;;;;;;26.00;20.00;;;;;-146.39;100.00;62182.44;6312252;20;3569041;-58
2023/03/29 03:22:19;;;;;;;;;26.00;21.00;;;;;-146.39;100.00;62182.44;6280274;20;2826322;-56
2023/03/29 03:24:48;;;;;;;;;26.33;19.00;;;;;-146.39;100.00;62182.44;6281586;20;3556517;-57
2023/03/29 03:27:17;;;;;;;;;31.00;25.50;;;;;-146.39;100.00;62182.44;6308892;20;2500319;-56
2023/03/29 03:29:44;;;;;;;;;28.00;26.00;;;;;-146.39;100.00;62182.44;6282785;20;2848227;-56
2023/03/29 03:32:12;;;;;;;;;27.50;24.00;;;;;-146.39;100.00;62182.44;6280937;20;2500321;-57
2023/03/29 03:34:40;;;;;;;;;29.00;25.50;;;;;-146.39;100.00;62182.44;6281397;20;2500261;-55
2023/03/29 03:37:10;;;;;;;;;30.67;24.33;;;;;-146.39;100.00;62182.44;6280311;20;3585668;-57
2023/03/29 03:39:40;;;;;;;;;30.67;25.33;;;;;-146.39;100.00;62182.44;6314948;20;3594006;-55
2023/03/29 03:42:08;;;;;;;;;26.67;21.67;;;;;-146.39;100.00;62182.44;6282237;20;3551283;-56
2023/03/29 03:44:38;;;;;;;;;28.67;22.67;;;;;-146.39;100.00;62182.44;6311317;20;3569017;-54
2023/03/29 03:47:06;;;;;;;;;19.00;18.00;;;;;-146.39;100.00;62182.44;6315268;20;2824230;-58
2023/03/29 03:49:35;;;;;;;;;22.33;20.67;;;;;-146.39;100.00;62182.44;6281899;20;3558700;-58
2023/03/29 03:52:03;;;;;;;;;17.00;15.00;;;;;-146.39;100.00;62182.44;6308475;20;2816093;-54
2023/03/29 03:54:32;;;;;;;;;25.00;21.50;;;;;-146.39;100.00;62182.44;6279361;20;3448234;-57
2023/03/29 03:57:01;;;;;;;;;34.50;28.00;;;;;-146.39;100.00;62182.44;6310969;20;2857615;-53
2023/03/29 03:59:29;;;;;;;;;28.67;21.00;;;;;-146.39;100.00;62182.44;6282168;20;3571083;-56
2023/03/29 04:01:59;;;;;;;;;32.67;25.67;;;;;-146.39;100.00;62182.44;6311930;20;3584731;-55
2023/03/29 04:04:27;;;;;;;;;18.00;17.00;;;;;-146.39;100.00;62182.44;6308893;20;2819150;-57
2023/03/29 04:07:01;;;;;;;;;29.00;21.67;;;;;-146.39;100.00;62182.44;6276848;20;3566976;-55
2023/03/29 04:09:32;;;;;;;;;23.33;18.67;;;;;-146.39;100.00;62182.44;6309862;20;3556503;-58
2023/03/29 04:12:02;;;;;;;;;16.00;13.40;;;;;-146.39;100.00;62182.44;6332957;20;2810692;-54
2023/03/29 04:14:31;;;;;;;;;29.00;23.00;;;;;-146.39;100.00;62182.44;6280371;20;3575281;-57
2023/03/29 04:16:59;;;;;;;;;42.50;36.50;;;;;-146.39;100.00;62182.44;6307151;20;2500308;-55
2023/03/29 04:19:27;;;;;;;;;56.50;43.50;;;;;-146.39;100.00;62182.44;6279458;20;2874263;-56
2023/03/29 04:21:57;;;;;;;;;63.67;46.67;;;;;-146.39;100.00;62182.44;6276522;20;2879415;-57
2023/03/29 04:24:25;;;;;;;;;66.00;48.00;;;;;-146.39;100.00;62182.44;6306462;20;2492982;-55
2023/03/29 04:26:55;;;;;;;;;73.50;56.50;;;;;-146.39;100.00;62182.44;6277532;20;3622231;-57
2023/03/29 04:29:23;;;;;;;;;68.50;53.00;;;;;-146.39;100.00;62182.44;6303688;20;2500425;-57
2023/03/29 04:31:55;;;;;;;;;72.67;50.00;;;;;-146.39;100.00;62182.44;6277293;20;2899306;-55
2023/03/29 04:34:24;;;;;;;;;80.00;56.50;;;;;-146.39;100.00;62182.44;6308719;20;2885729;-57
2023/03/29 04:36:52;;;;;;;;;73.00;56.00;;;;;-146.39;100.00;62182.44;6272875;20;2500258;-54
2023/03/29 04:39:20;;;;;;;;;76.50;56.50;;;;;-146.39;100.00;62182.44;6271698;20;2500297;-54
2023/03/29 04:41:50;;;;;;;;;85.00;61.33;;;;;-146.39;100.00;62182.44;6271096;20;3661770;-58
2023/03/29 04:44:20;;;;;;;;;80.00;62.00;;;;;-146.39;100.00;62182.44;6307865;20;2886803;-57
2023/03/29 04:46:48;;;;;;;;;79.00;62.00;;;;;-146.39;100.00;62182.44;6301388;20;2500282;-55
2023/03/29 04:49:17;;;;;;;;;77.33;59.33;;;;;-146.39;100.00;62182.44;6271916;20;2892288;-56
2023/03/29 04:51:47;;;;;;;;;77.33;57.00;;;;;-146.39;100.00;62182.44;6301206;20;2884649;-55
2023/03/29 04:54:17;;;;;;;;;87.33;64.00;;;;;-146.39;100.00;62182.44;6304593;20;2901570;-57
2023/03/29 04:56:46;;;;;;;;;91.67;65.33;;;;;-146.39;100.00;62182.44;6307444;20;3666416;-58
2023/03/29 04:59:17;;;;;;;;;90.67;63.00;;;;;-146.39;100.00;62182.44;6306371;20;2898219;-57
2023/03/29 05:01:46;;;;;;;;;79.33;61.00;;;;;-146.39;100.00;62182.44;6302874;20;2898322;-55
2023/03/29 05:04:14;;;;;;;;;64.00;45.00;;;;;-146.39;100.00;62182.44;6302597;20;2490036;-57
2023/03/29 05:06:43;;;;;;;;;71.50;56.00;;;;;-146.39;100.00;62182.44;6272857;20;2873288;-58
2023/03/29 05:09:12;;;;;;;;;69.00;55.00;;;;;-146.39;100.00;62182.44;6276647;20;2873319;-57
2023/03/29 05:11:41;;;;;;;;;72.50;56.50;;;;;-146.39;100.00;62182.44;6272709;20;2871091;-56
2023/03/29 05:14:10;;;;;;;;;72.67;55.00;;;;;-146.39;100.00;62182.44;6273958;20;2892051;-55
2023/03/29 05:16:41;;;;;;;;;74.33;54.33;;;;;-146.39;100.00;62182.44;6309997;20;2893088;-58
2023/03/29 05:19:10;;;;;;;;;73.00;56.50;;;;;-146.39;100.00;62182.44;6312116;20;2889931;-57
2023/03/29 05:21:39;;;;;;;;;62.00;47.00;;;;;-146.39;100.00;62182.44;6283123;20;2874251;-59
2023/03/29 05:24:11;;;;;;;;;63.00;46.50;;;;;-146.39;100.00;62182.44;6284789;20;2863880;-56
2023/03/29 05:26:39;;;;;;;;;60.50;45.00;;;;;-146.39;100.00;62182.44;6283100;20;2862811;-58
2023/03/29 05:29:08;;;;;;;;;44.50;39.00;;;;;-146.39;100.00;62182.44;6285482;20;2869019;-59
2023/03/29 05:31:36;;;;;;;;;51.00;40.50;;;;;-146.39;100.00;62182.44;6285351;20;2864206;-56
2023/03/29 05:34:06;;;;;;;;;51.50;38.00;;;;;-146.39;100.00;62182.44;6284382;20;2864864;-56
2023/03/29 05:36:35;;;;;;;;;45.00;40.50;;;;;-146.39;100.00;62182.44;6281021;20;2872195;-57
2023/03/29 05:39:05;;;;;;;;;36.00;34.00;;;;;-146.39;100.00;62182.44;6283973;20;2506526;-57
2023/03/29 05:41:34;;;;;;;;;46.50;37.00;;;;;-146.39;100.00;62182.44;6283642;20;2875450;-56
2023/03/29 05:44:03;;;;;;;;;44.00;36.50;;;;;-146.39;100.00;62182.44;6285243;20;2852373;-56
2023/03/29 05:46:31;;;;;;;;;44.00;43.00;;;;;-146.39;100.00;62182.44;6284283;20;2855443;-57
2023/03/29 05:49:01;;;;;;;;;42.50;38.50;;;;;-146.39;100.00;62182.44;6286246;20;2875249;-57
2023/03/29 05:51:32;;;;;;;;;49.67;37.33;;;;;-146.39;100.00;62182.44;6281888;20;2884751;-57
2023/03/29 05:54:01;;;;;;;;;45.00;38.00;;;;;-146.39;100.00;62182.44;6313770;20;2860748;-57
2023/03/29 05:56:30;;;;;;;;;94.33;69.33;;;;;-146.39;100.00;62182.44;6283611;20;3664848;-57
2023/03/29 05:59:00;;;;;;;;;59.00;46.00;;;;;-146.39;100.00;62182.44;6312285;20;2500283;-57
2023/03/29 06:01:29;;;;;;;;;36.00;30.00;;;;;-146.39;100.00;62182.44;6282889;20;2848631;-59
2023/03/29 06:03:59;;;;;;;;;50.00;39.50;;;;;-146.39;100.00;62182.44;6287123;20;2872241;-57
2023/03/29 06:06:28;;;;;;;;;47.00;37.00;;;;;-146.39;100.00;62182.44;6279280;20;2863934;-58
2023/03/29 06:08:58;;;;;;;;;93.00;68.67;;;;;-146.39;100.00;62182.44;6284206;20;3665902;-58
2023/03/29 06:11:28;;;;;;;;;79.00;60.33;;;;;-146.39;100.00;62182.44;6314604;20;2881541;-57
2023/03/29 06:13:57;;;;;;;;;44.67;40.33;;;;;-146.39;100.00;62182.44;6315443;20;3598298;-58
2023/03/29 06:16:25;;;;;;;;;37.50;29.50;;;;;-146.39;100.00;62182.44;6284095;20;2864994;-58
2023/03/29 06:18:55;;;;;;;;;27.50;27.50;;;;;-146.39;100.00;62182.44;6281656;20;2845110;-57
2023/03/29 06:21:26;;;;;;;;;39.50;31.00;;;;;-146.39;100.00;62182.44;6283591;20;2862818;-59
2023/03/29 06:23:54;;;;;;;;;31.50;26.50;;;;;-146.39;100.00;62182.44;6282125;20;2848251;-59
2023/03/29 06:26:23;;;;;;;;;26.50;24.00;;;;;-146.39;100.00;62182.44;6282453;20;2846153;-58
2023/03/29 06:28:53;;;;;;;;;40.00;35.00;;;;;-146.39;100.00;62182.44;6277047;20;2865903;-60
2023/03/29 06:31:22;;;;;;;;;31.00;28.00;;;;;-146.39;100.00;62182.44;6281592;20;2853368;-59
2023/03/29 06:33:51;;;;;;;;;35.00;32.67;;;;;-146.39;100.00;62182.44;6283592;20;2857561;-59
2023/03/29 06:36:22;;;;;;;;;35.33;30.00;;;;;-146.39;100.00;62182.44;6315085;20;2855552;-60
2023/03/29 06:38:52;;;;;;;;;46.00;36.00;;;;;-146.39;100.00;62182.44;6311753;20;3617964;-56
2023/03/29 06:41:22;;;;;;;;;53.00;42.00;;;;;-146.39;100.00;62182.44;6312052;20;2860743;-52
2023/03/29 06:43:52;;;;;;;;;39.00;36.00;;;;;-146.39;100.00;62182.44;6282911;20;2854416;-54
2023/03/29 06:46:21;;;;;;;;;60.33;45.00;;;;;-146.39;100.00;62182.44;6283914;20;3629413;-53
2023/03/29 06:48:52;;;;;;;;;41.50;34.00;;;;;-146.39;100.00;62182.44;6314991;20;2843019;-53
2023/03/29 06:51:21;;;;;;;;;34.00;30.50;;;;;-146.39;100.00;62182.44;6281226;20;2855504;-56
2023/03/29 06:53:50;;;;;;;;;41.00;35.00;;;;;-146.39;100.00;62182.44;6280548;20;2852384;-56
2023/03/29 06:56:21;;;;;;;;;28.00;24.50;;;;;-146.39;100.00;62182.44;6280184;20;2845116;-55
2023/03/29 06:58:50;;;;;;;;;27.50;22.00;;;;;-146.39;100.00;62182.44;6281337;20;2851314;-52
2023/03/29 07:01:19;;;;;;;;;31.00;28.50;;;;;-146.39;100.00;62182.44;6282221;20;2854487;-59
2023/03/29 07:03:48;;;;;;;;;22.50;22.50;;;;;-146.39;100.00;62182.44;6284351;20;2496154;-60
2023/03/29 07:06:19;;;;;;;;;26.00;17.67;;;;;-146.39;100.00;62182.44;6284762;20;3581615;-59
2023/03/29 07:08:51;;;;;;;;;17.33;17.33;;;;;-146.39;100.00;62182.44;6285252;20;3560694;-59
2023/03/29 07:11:20;;;;;;;;;21.00;18.50;;;;;-146.39;100.00;62182.44;6283247;20;2833617;-60
2023/03/29 07:13:49;;;;;;;;;20.00;18.00;;;;;-146.39;100.00;62182.44;6284637;20;3560683;-59
2023/03/29 07:16:19;;;;;;;;;17.33;13.00;;;;;-146.39;100.00;62182.44;6314993;20;3526413;-59
2023/03/29 07:18:47;;;;;;;;;13.50;12.50;;;;;-146.39;100.00;62182.44;6317832;20;2806645;-60
2023/03/29 07:21:15;;;;;;;;;14.00;14.00;;;;;-146.39;100.00;62182.44;6285022;20;2808631;-59
2023/03/29 07:23:43;;;;;;;;;14.00;14.00;;;;;-146.39;100.00;62182.44;6287679;20;2808624;-59
2023/03/29 07:26:11;;;;;;;;;15.50;15.50;;;;;-146.39;100.00;62182.44;6287548;20;2809679;-59
2023/03/29 07:28:39;;;;;;;;;14.00;12.00;;;;;-146.39;100.00;62182.44;6287099;20;3535729;-56
2023/03/29 07:31:11;;;;;;;;;17.00;14.50;;;;;-146.39;100.00;62182.44;6315530;20;2814889;-58
2023/03/29 07:33:39;;;;;;;;;15.00;14.50;;;;;-146.39;100.00;62182.44;6289804;20;2808632;-60
2023/03/29 07:36:09;;;;;;;;;17.00;13.67;;;;;-146.39;100.00;62182.44;6285539;20;3556542;-59
2023/03/29 07:38:38;;;;;;;;;17.00;12.00;;;;;-146.39;100.00;62182.44;6314461;20;3521141;-59
2023/03/29 07:41:07;;;;;;;;;15.00;14.00;;;;;-146.39;100.00;62182.44;6313483;20;2817100;-58
2023/03/29 07:43:35;;;;;;;;;9.50;9.50;;;;;-146.39;100.00;62182.44;6285112;20;2757579;-59
2023/03/29 07:46:05;;;;;;;;;16.67;15.00;;;;;-146.39;100.00;62182.44;6283842;20;3544030;-57
2023/03/29 07:48:35;;;;;;;;;15.00;15.00;;;;;-146.39;100.00;62182.44;6279485;20;3538299;-57
2023/03/29 07:51:06;;;;;;;;;20.67;15.33;;;;;-146.39;100.00;62182.44;6314846;20;3562752;-58
2023/03/29 07:53:34;;;;;;;;;11.67;11.67;;;;;-146.39;100.00;62182.44;6312465;20;3541991;-56
2023/03/29 07:56:03;;;;;;;;;16.00;13.00;;;;;-146.39;100.00;62182.44;6313666;20;2816956;-57
2023/03/29 07:58:33;;;;;;;;;14.40;13.20;;;;;-146.39;100.00;62182.44;6306383;20;2809758;-56
2023/03/29 08:01:02;;;;;;;;;17.40;13.40;;;;;-146.39;100.00;62182.44;6305668;20;2794063;-58
2023/03/29 08:03:31;;;;;;;;;10.00;8.00;;;;;-146.39;100.00;62182.44;6281468;20;2758622;-58
2023/03/29 08:06:02;;;;;;;;;10.50;10.00;;;;;-146.39;100.00;62182.44;6286034;20;2787786;-57
2023/03/29 08:08:29;;;;;;;;;9.00;9.00;;;;;-146.39;100.00;62182.44;6288068;20;2753452;-57
2023/03/29 08:10:58;;;;;;;;;7.25;7.00;;;;;-146.39;100.00;62182.44;6333865;20;1813952;-57
2023/03/29 08:13:29;;;;;;;;;8.33;8.33;;;;;-146.39;100.00;62182.44;6359868;20;1808414;-58
2023/03/29 08:15:57;;;;;;;;;13.50;9.00;;;;;-146.39;100.00;62182.44;6283947;20;2775330;-58
2023/03/29 08:18:26;;;;;;;;;7.25;7.25;;;;;-146.39;100.00;62182.44;6304540;20;1806559;-57
2023/03/29 08:20:55;;;;;;;;;15.67;13.33;;;;;-146.39;100.00;62182.44;6311208;20;2806849;-58
2023/03/29 08:23:26;;;;;;;;;7.40;6.80;;;;;-146.39;100.00;62182.44;6343233;20;2745080;-59
2023/03/29 08:25:53;;;;;;;;;9.50;9.50;;;;;-146.39;100.00;62182.44;6314501;20;2758604;-57
2023/03/29 08:28:22;;;;;;;;;12.00;10.50;;;;;-146.39;100.00;62182.44;6285619;20;2789868;-57
2023/03/29 08:30:50;;;;;;;;;10.50;9.50;;;;;-146.39;100.00;62182.44;6287477;20;2776336;-59
2023/03/29 08:33:18;;;;;;;;;11.00;11.00;;;;;-146.39;100.00;62182.44;6283128;20;2796203;-58
2023/03/29 08:35:48;;;;;;;;;9.60;7.40;;;;;-146.39;100.00;62182.44;6310307;20;2753452;-58
2023/03/29 08:38:16;;;;;;;;;10.00;10.00;;;;;-146.39;100.00;62182.44;6311948;20;2776391;-58
2023/03/29 08:40:48;;;;;;;;;12.67;11.67;;;;;-146.39;100.00;62182.44;6294022;20;3530520;-57
2023/03/29 08:43:51;;;;;;;;;11.40;11.40;;;;;-146.39;100.00;62182.44;6339675;20;2787264;-58
2023/03/29 08:46:51;;;;;;;;;9.00;9.00;;;;;-146.39;100.00;62182.44;6281778;20;2762816;-58
2023/03/29 08:49:21;;;;;;;;;11.00;11.00;;;;;-146.39;100.00;62182.44;6281109;20;2794143;-58
2023/03/29 08:52:02;;;;;;;;;10.67;10.00;;;;;-146.39;100.00;62182.44;6307521;20;3518053;-58
2023/03/29 08:54:47;;;;;;;;;7.50;7.50;;;;;-146.39;100.00;62182.44;6313743;20;2734729;-57
2023/03/29 08:57:32;;;;;;;;;11.00;6.50;;;;;-146.39;100.00;62182.44;6279308;20;2769454;-58
2023/03/29 09:00:06;;;;;;;;;4.50;3.00;;;;;-146.39;100.00;62182.44;6299195;20;1807571;-58
2023/03/29 09:02:34;;;;;;;;;9.00;9.00;;;;;-146.39;100.00;62182.44;6314948;20;2735742;-58
2023/03/29 09:05:36;;;;;;;;;10.00;10.00;;;;;-146.39;100.00;62182.44;6309553;20;2796293;-58
2023/03/29 09:08:16;;;;;;;;;9.75;8.50;;;;;-146.39;100.00;62182.44;6299952;20;1809735;-58
2023/03/29 09:11:27;;;;;;;;;8.50;7.25;;;;;-146.39;100.00;62182.44;6326382;20;1803313;-57
2023/03/29 09:14:31;;;;;;;;;6.50;5.00;;;;;-146.39;100.00;62182.44;6310529;20;2750496;-58
2023/03/29 09:17:46;;;;;;;;;10.00;8.50;;;;;-146.39;100.00;62182.44;6312400;20;2761779;-58
2023/03/29 09:20:51;;;;;;;;;5.00;5.00;;;;;-146.39;100.00;62182.44;6282758;20;2736747;-59
2023/03/29 09:23:29;;;;;;;;;7.75;7.00;;;;;-146.39;100.00;62182.44;6331491;20;1816045;-58
2023/03/29 09:26:43;;;;;;;;;4.50;4.50;;;;;-146.39;100.00;62182.44;6315313;20;2747201;-57
2023/03/29 09:29:49;;;;;;;;;8.50;5.00;;;;;-146.39;100.00;62182.44;6315091;20;2739866;-58
2023/03/29 09:32:53;;;;;;;;;8.00;6.00;;;;;-146.39;100.00;62182.44;6286479;20;2735840;-58
2023/03/29 09:35:41;;;;;;;;;5.00;5.00;;;;;-146.39;100.00;62182.44;6315609;20;2749355;-59
2023/03/29 09:38:12;;;;;;;;;5.00;5.00;;;;;-146.39;100.00;62182.44;6283297;20;2752401;-58
2023/03/29 09:41:05;;;;;;;;;3.00;3.00;;;;;-146.39;100.00;62182.44;6304464;20;1812981;-57
2023/03/29 09:43:37;;;;;;;;;2.75;2.75;;;;;-146.39;100.00;62182.44;6331532;20;1812921;-58
2023/03/29 09:46:34;;;;;;;;;9.50;7.00;;;;;-146.39;100.00;62182.44;6314074;20;2758625;-58
2023/03/29 09:49:11;;;;;;;;;3.00;3.00;;;;;-146.39;100.00;62182.44;6281458;20;2748215;-58
2023/03/29 09:51:42;;;;;;;;;5.50;4.00;;;;;-146.39;100.00;62182.44;6295760;20;1812933;-59
2023/03/29 09:54:13;;;;;;;;;6.67;6.00;;;;;-146.39;100.00;62182.44;6354517;20;1804486;-58
2023/03/29 09:56:41;;;;;;;;;8.25;6.00;;;;;-146.39;100.00;62182.44;6298871;20;1810945;-58
2023/03/29 09:59:12;;;;;;;;;5.00;5.00;;;;;-146.39;100.00;62182.44;6313704;20;2745086;-57
2023/03/29 10:01:45;;;;;;;;;6.00;6.00;;;;;-146.39;100.00;62182.44;6312656;20;2742032;-58
2023/03/29 10:04:15;;;;;;;;;7.50;7.00;;;;;-146.39;100.00;62182.44;6314403;20;2753402;-57
2023/03/29 10:06:52;;;;;;;;;4.50;4.00;;;;;-146.39;100.00;62182.44;6288691;20;2754483;-58
2023/03/29 10:09:23;;;;;;;;;7.00;7.00;;;;;-146.39;100.00;62182.44;6289948;20;2732568;-58
2023/03/29 10:12:01;;;;;;;;;6.50;5.50;;;;;-146.39;100.00;62182.44;6316573;20;2745118;-58
2023/03/29 10:14:48;;;;;;;;;7.75;7.75;;;;;-146.39;100.00;62182.44;6304195;20;1808141;-58
2023/03/29 10:17:32;;;;;;;;;8.25;6.00;;;;;-146.39;100.00;62182.44;6337084;20;1807672;-56
2023/03/29 10:20:12;;;;;;;;;12.00;7.00;;;;;-146.39;100.00;62182.44;6317111;20;2769036;-59
2023/03/29 10:22:55;;;;;;;;;9.50;7.00;;;;;-146.39;100.00;62182.44;6285006;20;2750360;-58
2023/03/29 10:25:34;;;;;;;;;6.75;6.75;;;;;-146.39;100.00;62182.44;6301452;20;1812939;-58
2023/03/29 10:28:15;;;;;;;;;10.00;8.00;;;;;-146.39;100.00;62182.44;6316835;20;2747189;-59
2023/03/29 10:30:55;;;;;;;;;7.00;6.25;;;;;-146.39;100.00;62182.44;6302602;20;1810386;-58
2023/03/29 10:33:32;;;;;;;;;6.00;6.00;;;;;-146.39;100.00;62182.44;6318454;20;2733655;-59
2023/03/29 10:36:05;;;;;;;;;5.00;5.00;;;;;-146.39;100.00;62182.44;6318504;20;2727584;-59
2023/03/29 10:38:36;;;;;;;;;6.00;5.00;;;;;-146.39;100.00;62182.44;6286431;20;2750311;-58
2023/03/29 10:41:10;;;;;;;;;5.00;5.00;;;;;-146.39;100.00;62182.44;6283853;20;2745083;-58
2023/03/29 10:43:48;;;;;;;;;6.00;6.00;;;;;-146.39;100.00;62182.44;6285961;20;2739901;-58
2023/03/29 10:46:30;;;;;;;;;0.50;0.50;;;;;-146.39;100.00;62182.44;6319513;20;2744008;-58
2023/03/29 10:49:08;;;;;;;;;5.00;5.00;;;;;-146.39;100.00;62182.44;6317991;20;2754602;-58
2023/03/29 10:51:36;;;;;;;;;3.50;3.00;;;;;-146.39;100.00;62182.44;6283863;20;2744080;-58
2023/03/29 10:54:16;;;;;;;;;6.00;4.00;;;;;-146.39;100.00;62182.44;6285513;20;2748307;-58
2023/03/29 10:56:57;;;;;;;;;5.00;5.00;;;;;-146.39;100.00;62182.44;6285764;20;2747152;-55
2023/03/29 11:00:51;;;;;;;;;5.00;5.00;;;;;-146.39;100.00;62182.44;6285688;20;2734656;-60
2023/03/29 11:04:51;;;;;;;;;6.00;6.00;;;;;-146.39;100.00;62182.44;6284775;20;2745129;-58
2023/03/29 11:08:53;;;;;;;;;7.00;6.00;;;;;-146.39;100.00;62182.44;6284982;20;2739904;-59
2023/03/29 11:12:36;;;;;;;;;5.00;5.00;;;;;-146.39;100.00;62182.44;6284115;20;2745091;-58
2023/03/29 11:16:30;;;;;;;;;24.00;22.67;;;;;-146.39;100.00;62182.44;6281278;20;3592012;-57
2023/03/29 11:20:31;;;;;;;;;7.25;6.00;;;;;-146.39;100.00;62182.44;6301780;20;1808699;-59
2023/03/29 11:24:17;;;;;;;;;15.67;12.33;;;;;-146.39;100.00;62182.44;6317183;20;2796162;-58
2023/03/29 11:28:10;;;;;;;;;6.00;5.00;;;;;-146.39;100.00;62182.44;6320200;20;2747170;-58